sensor_id;sensor_type;location;lat;lon;timestamp;P1;durP1;ratioP1;P2;durP2;ratioP2
8001;SDS011;4046;48.774;8.732;2023-06-04T00:00:43;5.00;;;4.70;;
8001;SDS011;4046;48.774;8.732;2023-06-04T00:03:09;5.00;;;4.70;;
8001;SDS011;4046;48.774;8.732;2023-06-04T00:05:35;5.30;;;4.90;;
8001;SDS011;4046;48.774;8.732;2023-06-04T00:08:01;5.30;;;4.90;;
8001;SDS011;4046;48.774;8.732;2023-06-04T00:10:27;5.40;;;5.00;;
8001;SDS011;4046;48.774;8.732;2023-06-04T00:12:52;5.30;;;5.00;;
8001;SDS011;4046;48.774;8.732;2023-06-04T00:15:18;5.13;;;4.73;;
8001;SDS011;4046;48.774;8.732;2023-06-04T00:17:44;5.40;;;5.10;;
8001;SDS011;4046;48.774;8.732;2023-06-04T00:20:10;5.37;;;5.07;;
8001;SDS011;4046;48.774;8.732;2023-06-04T00:22:37;5.53;;;5.13;;
8001;SDS011;4046;48.774;8.732;2023-06-04T00:25:03;5.47;;;5.07;;
8001;SDS011;4046;48.774;8.732;2023-06-04T00:27:29;5.37;;;4.97;;
8001;SDS011;4046;48.774;8.732;2023-06-04T00:29:55;4.87;;;4.57;;
8001;SDS011;4046;48.774;8.732;2023-06-04T00:32:22;5.07;;;4.70;;
8001;SDS011;4046;48.774;8.732;2023-06-04T00:34:50;4.97;;;4.67;;
8001;SDS011;4046;48.774;8.732;2023-06-04T00:37:21;5.23;;;4.83;;
8001;SDS011;4046;48.774;8.732;2023-06-04T00:39:48;5.43;;;5.03;;
8001;SDS011;4046;48.774;8.732;2023-06-04T00:42:14;5.53;;;5.13;;
8001;SDS011;4046;48.774;8.732;2023-06-04T00:44:39;5.30;;;5.00;;
8001;SDS011;4046;48.774;8.732;2023-06-04T00:47:16;5.30;;;4.90;;
8001;SDS011;4046;48.774;8.732;2023-06-04T00:49:44;5.07;;;4.77;;
8001;SDS011;4046;48.774;8.732;2023-06-04T00:52:10;5.40;;;5.00;;
8001;SDS011;4046;48.774;8.732;2023-06-04T00:54:40;5.80;;;5.40;;
8001;SDS011;4046;48.774;8.732;2023-06-04T00:57:06;5.50;;;5.10;;
8001;SDS011;4046;48.774;8.732;2023-06-04T00:59:36;5.73;;;5.33;;
8001;SDS011;4046;48.774;8.732;2023-06-04T01:02:20;5.20;;;4.90;;
8001;SDS011;4046;48.774;8.732;2023-06-04T01:07:45;5.10;;;4.80;;
8001;SDS011;4046;48.774;8.732;2023-06-04T01:10:12;5.67;;;5.27;;
8001;SDS011;4046;48.774;8.732;2023-06-04T01:12:39;5.10;;;4.70;;
8001;SDS011;4046;48.774;8.732;2023-06-04T01:15:06;5.57;;;5.17;;
8001;SDS011;4046;48.774;8.732;2023-06-04T01:17:39;5.53;;;5.13;;
8001;SDS011;4046;48.774;8.732;2023-06-04T01:27:52;5.70;;;5.30;;
8001;SDS011;4046;48.774;8.732;2023-06-04T01:30:25;5.23;;;4.93;;
8001;SDS011;4046;48.774;8.732;2023-06-04T01:32:56;5.37;;;4.97;;
8001;SDS011;4046;48.774;8.732;2023-06-04T01:35:23;5.43;;;5.00;;
8001;SDS011;4046;48.774;8.732;2023-06-04T01:37:49;5.70;;;5.20;;
8001;SDS011;4046;48.774;8.732;2023-06-04T01:40:15;5.23;;;4.83;;
8001;SDS011;4046;48.774;8.732;2023-06-04T01:42:41;5.70;;;5.30;;
8001;SDS011;4046;48.774;8.732;2023-06-04T01:45:07;5.30;;;5.00;;
8001;SDS011;4046;48.774;8.732;2023-06-04T01:47:34;5.20;;;4.90;;
8001;SDS011;4046;48.774;8.732;2023-06-04T01:50:04;5.47;;;5.10;;
8001;SDS011;4046;48.774;8.732;2023-06-04T01:52:37;5.13;;;4.73;;
8001;SDS011;4046;48.774;8.732;2023-06-04T01:55:04;5.07;;;4.67;;
8001;SDS011;4046;48.774;8.732;2023-06-04T01:57:32;5.43;;;4.93;;
8001;SDS011;4046;48.774;8.732;2023-06-04T01:59:59;4.80;;;4.50;;
8001;SDS011;4046;48.774;8.732;2023-06-04T02:02:26;5.20;;;4.83;;
8001;SDS011;4046;48.774;8.732;2023-06-04T02:04:52;5.40;;;5.00;;
8001;SDS011;4046;48.774;8.732;2023-06-04T02:07:18;5.30;;;5.00;;
8001;SDS011;4046;48.774;8.732;2023-06-04T02:09:48;6.53;;;5.33;;
8001;SDS011;4046;48.774;8.732;2023-06-04T02:12:14;5.30;;;4.90;;
8001;SDS011;4046;48.774;8.732;2023-06-04T02:14:40;5.80;;;5.40;;
8001;SDS011;4046;48.774;8.732;2023-06-04T02:17:10;5.47;;;5.07;;
8001;SDS011;4046;48.774;8.732;2023-06-04T02:19:44;5.60;;;5.20;;
8001;SDS011;4046;48.774;8.732;2023-06-04T02:22:11;4.80;;;4.50;;
8001;SDS011;4046;48.774;8.732;2023-06-04T02:24:37;5.13;;;4.80;;
8001;SDS011;4046;48.774;8.732;2023-06-04T02:27:04;5.17;;;4.80;;
8001;SDS011;4046;48.774;8.732;2023-06-04T02:29:31;5.80;;;5.40;;
8001;SDS011;4046;48.774;8.732;2023-06-04T02:31:58;5.67;;;5.27;;
8001;SDS011;4046;48.774;8.732;2023-06-04T02:34:23;5.20;;;4.70;;
8001;SDS011;4046;48.774;8.732;2023-06-04T02:36:50;5.23;;;4.83;;
8001;SDS011;4046;48.774;8.732;2023-06-04T02:39:19;5.47;;;5.07;;
8001;SDS011;4046;48.774;8.732;2023-06-04T02:41:45;4.97;;;4.67;;
8001;SDS011;4046;48.774;8.732;2023-06-04T02:44:11;6.07;;;5.53;;
8001;SDS011;4046;48.774;8.732;2023-06-04T02:46:37;5.20;;;4.80;;
8001;SDS011;4046;48.774;8.732;2023-06-04T02:49:04;5.00;;;4.60;;
8001;SDS011;4046;48.774;8.732;2023-06-04T02:51:29;5.13;;;4.83;;
8001;SDS011;4046;48.774;8.732;2023-06-04T02:53:55;4.83;;;4.50;;
8001;SDS011;4046;48.774;8.732;2023-06-04T02:56:21;5.27;;;4.87;;
8001;SDS011;4046;48.774;8.732;2023-06-04T02:58:48;5.27;;;4.83;;
8001;SDS011;4046;48.774;8.732;2023-06-04T03:01:19;5.60;;;5.20;;
8001;SDS011;4046;48.774;8.732;2023-06-04T03:03:48;4.87;;;4.57;;
8001;SDS011;4046;48.774;8.732;2023-06-04T03:06:15;5.40;;;5.00;;
8001;SDS011;4046;48.774;8.732;2023-06-04T03:08:43;5.70;;;5.30;;
8001;SDS011;4046;48.774;8.732;2023-06-04T03:11:08;5.40;;;5.00;;
8001;SDS011;4046;48.774;8.732;2023-06-04T03:13:35;5.00;;;4.60;;
8001;SDS011;4046;48.774;8.732;2023-06-04T03:16:01;5.33;;;4.93;;
8001;SDS011;4046;48.774;8.732;2023-06-04T03:18:27;5.10;;;4.80;;
8001;SDS011;4046;48.774;8.732;2023-06-04T03:20:54;4.83;;;4.53;;
8001;SDS011;4046;48.774;8.732;2023-06-04T03:23:20;5.53;;;5.10;;
8001;SDS011;4046;48.774;8.732;2023-06-04T03:25:47;5.27;;;4.87;;
8001;SDS011;4046;48.774;8.732;2023-06-04T03:28:13;4.67;;;4.37;;
8001;SDS011;4046;48.774;8.732;2023-06-04T03:30:39;5.00;;;4.70;;
8001;SDS011;4046;48.774;8.732;2023-06-04T03:33:05;5.07;;;4.77;;
8001;SDS011;4046;48.774;8.732;2023-06-04T03:35:35;5.10;;;4.80;;
8001;SDS011;4046;48.774;8.732;2023-06-04T03:38:00;5.40;;;5.00;;
8001;SDS011;4046;48.774;8.732;2023-06-04T03:40:26;4.83;;;4.53;;
8001;SDS011;4046;48.774;8.732;2023-06-04T03:42:52;4.93;;;4.60;;
8001;SDS011;4046;48.774;8.732;2023-06-04T03:45:18;4.90;;;4.50;;
8001;SDS011;4046;48.774;8.732;2023-06-04T03:47:43;5.00;;;4.70;;
8001;SDS011;4046;48.774;8.732;2023-06-04T03:50:09;5.17;;;4.80;;
8001;SDS011;4046;48.774;8.732;2023-06-04T03:52:36;4.77;;;4.47;;
8001;SDS011;4046;48.774;8.732;2023-06-04T03:55:01;5.13;;;4.67;;
8001;SDS011;4046;48.774;8.732;2023-06-04T03:57:28;4.13;;;3.93;;
8001;SDS011;4046;48.774;8.732;2023-06-04T03:59:54;5.03;;;4.73;;
8001;SDS011;4046;48.774;8.732;2023-06-04T04:02:20;5.73;;;5.33;;
8001;SDS011;4046;48.774;8.732;2023-06-04T04:04:46;5.27;;;4.97;;
8001;SDS011;4046;48.774;8.732;2023-06-04T04:07:12;4.80;;;4.50;;
8001;SDS011;4046;48.774;8.732;2023-06-04T04:09:37;4.50;;;4.30;;
8001;SDS011;4046;48.774;8.732;2023-06-04T04:12:04;4.70;;;4.30;;
8001;SDS011;4046;48.774;8.732;2023-06-04T04:14:31;5.60;;;5.20;;
8001;SDS011;4046;48.774;8.732;2023-06-04T04:16:57;5.17;;;4.80;;
8001;SDS011;4046;48.774;8.732;2023-06-04T04:19:22;4.57;;;4.23;;
8001;SDS011;4046;48.774;8.732;2023-06-04T04:21:48;5.77;;;5.27;;
8001;SDS011;4046;48.774;8.732;2023-06-04T04:24:25;5.10;;;4.73;;
8001;SDS011;4046;48.774;8.732;2023-06-04T04:26:52;5.00;;;4.70;;
8001;SDS011;4046;48.774;8.732;2023-06-04T04:29:21;4.77;;;4.47;;
8001;SDS011;4046;48.774;8.732;2023-06-04T04:31:50;5.07;;;4.77;;
8001;SDS011;4046;48.774;8.732;2023-06-04T04:34:17;4.47;;;4.20;;
8001;SDS011;4046;48.774;8.732;2023-06-04T04:36:45;4.67;;;4.27;;
8001;SDS011;4046;48.774;8.732;2023-06-04T04:39:21;5.00;;;4.70;;
8001;SDS011;4046;48.774;8.732;2023-06-04T04:41:48;4.90;;;4.60;;
8001;SDS011;4046;48.774;8.732;2023-06-04T04:44:14;5.50;;;5.10;;
8001;SDS011;4046;48.774;8.732;2023-06-04T04:46:40;5.17;;;4.77;;
8001;SDS011;4046;48.774;8.732;2023-06-04T04:49:06;4.73;;;4.43;;
8001;SDS011;4046;48.774;8.732;2023-06-04T04:51:32;5.37;;;4.97;;
8001;SDS011;4046;48.774;8.732;2023-06-04T04:53:58;4.90;;;4.60;;
8001;SDS011;4046;48.774;8.732;2023-06-04T04:56:27;4.60;;;4.30;;
8001;SDS011;4046;48.774;8.732;2023-06-04T04:58:54;4.60;;;4.30;;
8001;SDS011;4046;48.774;8.732;2023-06-04T05:01:20;5.00;;;4.70;;
8001;SDS011;4046;48.774;8.732;2023-06-04T05:03:47;4.73;;;4.37;;
8001;SDS011;4046;48.774;8.732;2023-06-04T05:06:14;5.07;;;4.77;;
8001;SDS011;4046;48.774;8.732;2023-06-04T05:08:39;5.10;;;4.63;;
8001;SDS011;4046;48.774;8.732;2023-06-04T05:11:07;5.20;;;4.80;;
8001;SDS011;4046;48.774;8.732;2023-06-04T05:13:33;5.60;;;5.20;;
8001;SDS011;4046;48.774;8.732;2023-06-04T05:16:00;5.40;;;4.90;;
8001;SDS011;4046;48.774;8.732;2023-06-04T05:18:36;5.00;;;4.70;;
8001;SDS011;4046;48.774;8.732;2023-06-04T05:21:06;5.63;;;5.20;;
8001;SDS011;4046;48.774;8.732;2023-06-04T05:23:33;4.97;;;4.67;;
8001;SDS011;4046;48.774;8.732;2023-06-04T05:26:02;4.73;;;4.43;;
8001;SDS011;4046;48.774;8.732;2023-06-04T05:28:30;5.27;;;4.77;;
8001;SDS011;4046;48.774;8.732;2023-06-04T05:30:58;4.63;;;4.33;;
8001;SDS011;4046;48.774;8.732;2023-06-04T05:33:25;4.67;;;4.37;;
8001;SDS011;4046;48.774;8.732;2023-06-04T05:35:52;4.77;;;4.47;;
8001;SDS011;4046;48.774;8.732;2023-06-04T05:38:19;4.50;;;4.20;;
8001;SDS011;4046;48.774;8.732;2023-06-04T05:40:47;4.90;;;4.60;;
8001;SDS011;4046;48.774;8.732;2023-06-04T05:43:13;5.13;;;4.63;;
8001;SDS011;4046;48.774;8.732;2023-06-04T05:45:39;5.07;;;4.70;;
8001;SDS011;4046;48.774;8.732;2023-06-04T05:48:05;4.73;;;4.43;;
8001;SDS011;4046;48.774;8.732;2023-06-04T05:50:31;4.67;;;4.27;;
8001;SDS011;4046;48.774;8.732;2023-06-04T05:52:57;4.57;;;4.20;;
8001;SDS011;4046;48.774;8.732;2023-06-04T05:55:23;4.83;;;4.47;;
8001;SDS011;4046;48.774;8.732;2023-06-04T05:57:50;4.50;;;4.20;;
8001;SDS011;4046;48.774;8.732;2023-06-04T06:00:19;4.50;;;4.20;;
8001;SDS011;4046;48.774;8.732;2023-06-04T06:02:45;4.33;;;4.03;;
8001;SDS011;4046;48.774;8.732;2023-06-04T06:05:14;4.63;;;4.33;;
8001;SDS011;4046;48.774;8.732;2023-06-04T06:07:41;4.23;;;3.93;;
8001;SDS011;4046;48.774;8.732;2023-06-04T06:10:08;4.60;;;4.30;;
8001;SDS011;4046;48.774;8.732;2023-06-04T06:12:35;4.40;;;4.20;;
8001;SDS011;4046;48.774;8.732;2023-06-04T06:15:01;4.87;;;4.57;;
8001;SDS011;4046;48.774;8.732;2023-06-04T06:17:27;4.40;;;4.10;;
8001;SDS011;4046;48.774;8.732;2023-06-04T06:19:54;4.50;;;4.20;;
8001;SDS011;4046;48.774;8.732;2023-06-04T06:22:21;4.20;;;3.90;;
8001;SDS011;4046;48.774;8.732;2023-06-04T06:24:49;5.13;;;4.73;;
8001;SDS011;4046;48.774;8.732;2023-06-04T06:27:15;4.50;;;4.20;;
8001;SDS011;4046;48.774;8.732;2023-06-04T06:29:41;4.37;;;4.07;;
8001;SDS011;4046;48.774;8.732;2023-06-04T06:32:08;4.23;;;3.93;;
8001;SDS011;4046;48.774;8.732;2023-06-04T06:34:35;4.60;;;4.27;;
8001;SDS011;4046;48.774;8.732;2023-06-04T06:37:02;4.43;;;4.10;;
8001;SDS011;4046;48.774;8.732;2023-06-04T06:39:28;4.00;;;3.80;;
8001;SDS011;4046;48.774;8.732;2023-06-04T06:41:54;3.97;;;3.67;;
8001;SDS011;4046;48.774;8.732;2023-06-04T06:44:20;4.47;;;4.17;;
8001;SDS011;4046;48.774;8.732;2023-06-04T06:46:46;3.90;;;3.70;;
8001;SDS011;4046;48.774;8.732;2023-06-04T06:49:14;4.40;;;4.10;;
8001;SDS011;4046;48.774;8.732;2023-06-04T06:51:43;4.03;;;3.73;;
8001;SDS011;4046;48.774;8.732;2023-06-04T06:54:09;4.23;;;4.03;;
8001;SDS011;4046;48.774;8.732;2023-06-04T06:56:35;4.50;;;4.10;;
8001;SDS011;4046;48.774;8.732;2023-06-04T06:59:01;4.13;;;3.93;;
8001;SDS011;4046;48.774;8.732;2023-06-04T07:01:27;3.93;;;3.70;;
8001;SDS011;4046;48.774;8.732;2023-06-04T07:03:53;4.20;;;3.90;;
8001;SDS011;4046;48.774;8.732;2023-06-04T07:06:18;3.73;;;3.53;;
8001;SDS011;4046;48.774;8.732;2023-06-04T07:08:44;4.10;;;3.83;;
8001;SDS011;4046;48.774;8.732;2023-06-04T07:11:13;3.53;;;3.33;;
8001;SDS011;4046;48.774;8.732;2023-06-04T07:13:39;4.20;;;3.90;;
8001;SDS011;4046;48.774;8.732;2023-06-04T07:16:05;4.07;;;3.77;;
8001;SDS011;4046;48.774;8.732;2023-06-04T07:18:31;3.50;;;3.30;;
8001;SDS011;4046;48.774;8.732;2023-06-04T07:20:58;3.60;;;3.40;;
8001;SDS011;4046;48.774;8.732;2023-06-04T07:23:23;4.00;;;3.60;;
8001;SDS011;4046;48.774;8.732;2023-06-04T07:25:50;4.03;;;3.73;;
8001;SDS011;4046;48.774;8.732;2023-06-04T07:28:16;3.70;;;3.30;;
8001;SDS011;4046;48.774;8.732;2023-06-04T07:30:44;3.80;;;3.50;;
8001;SDS011;4046;48.774;8.732;2023-06-04T07:33:10;3.90;;;3.60;;
8001;SDS011;4046;48.774;8.732;2023-06-04T07:35:36;4.23;;;3.93;;
8001;SDS011;4046;48.774;8.732;2023-06-04T07:38:02;3.27;;;3.07;;
8001;SDS011;4046;48.774;8.732;2023-06-04T07:40:28;3.83;;;3.53;;
8001;SDS011;4046;48.774;8.732;2023-06-04T07:42:53;3.97;;;3.67;;
8001;SDS011;4046;48.774;8.732;2023-06-04T07:45:19;4.30;;;4.00;;
8001;SDS011;4046;48.774;8.732;2023-06-04T07:47:45;3.17;;;2.97;;
8001;SDS011;4046;48.774;8.732;2023-06-04T07:50:12;3.67;;;3.43;;
8001;SDS011;4046;48.774;8.732;2023-06-04T07:52:38;3.30;;;3.10;;
8001;SDS011;4046;48.774;8.732;2023-06-04T07:55:04;3.90;;;3.70;;
8001;SDS011;4046;48.774;8.732;2023-06-04T07:57:30;3.83;;;3.53;;
8001;SDS011;4046;48.774;8.732;2023-06-04T07:59:57;3.73;;;3.43;;
8001;SDS011;4046;48.774;8.732;2023-06-04T08:02:23;3.30;;;3.10;;
8001;SDS011;4046;48.774;8.732;2023-06-04T08:04:49;3.80;;;3.50;;
8001;SDS011;4046;48.774;8.732;2023-06-04T08:07:15;3.50;;;3.30;;
8001;SDS011;4046;48.774;8.732;2023-06-04T08:09:41;3.40;;;3.20;;
8001;SDS011;4046;48.774;8.732;2023-06-04T08:12:07;3.57;;;3.37;;
8001;SDS011;4046;48.774;8.732;2023-06-04T08:14:32;3.07;;;2.87;;
8001;SDS011;4046;48.774;8.732;2023-06-04T08:16:59;3.67;;;3.47;;
8001;SDS011;4046;48.774;8.732;2023-06-04T08:19:25;3.53;;;3.33;;
8001;SDS011;4046;48.774;8.732;2023-06-04T08:21:51;3.50;;;3.30;;
8001;SDS011;4046;48.774;8.732;2023-06-04T08:24:16;3.50;;;3.30;;
8001;SDS011;4046;48.774;8.732;2023-06-04T08:26:42;3.97;;;3.70;;
8001;SDS011;4046;48.774;8.732;2023-06-04T08:29:08;3.63;;;3.30;;
8001;SDS011;4046;48.774;8.732;2023-06-04T08:31:34;3.50;;;3.30;;
8001;SDS011;4046;48.774;8.732;2023-06-04T08:34:00;3.50;;;3.17;;
8001;SDS011;4046;48.774;8.732;2023-06-04T08:36:27;3.17;;;2.97;;
8001;SDS011;4046;48.774;8.732;2023-06-04T08:38:53;3.60;;;3.40;;
8001;SDS011;4046;48.774;8.732;2023-06-04T08:43:52;3.57;;;3.37;;
8001;SDS011;4046;48.774;8.732;2023-06-04T08:46:21;3.50;;;3.30;;
8001;SDS011;4046;48.774;8.732;2023-06-04T08:48:48;3.20;;;3.00;;
8001;SDS011;4046;48.774;8.732;2023-06-04T08:51:17;3.27;;;3.07;;
8001;SDS011;4046;48.774;8.732;2023-06-04T08:53:44;3.30;;;3.00;;
8001;SDS011;4046;48.774;8.732;2023-06-04T08:56:13;3.23;;;3.03;;
8001;SDS011;4046;48.774;8.732;2023-06-04T08:58:39;3.50;;;3.30;;
8001;SDS011;4046;48.774;8.732;2023-06-04T09:01:07;3.13;;;2.93;;
8001;SDS011;4046;48.774;8.732;2023-06-04T09:03:33;3.37;;;3.17;;
8001;SDS011;4046;48.774;8.732;2023-06-04T09:06:02;3.60;;;3.40;;
8001;SDS011;4046;48.774;8.732;2023-06-04T09:08:34;3.53;;;3.23;;
8001;SDS011;4046;48.774;8.732;2023-06-04T09:11:05;3.47;;;3.27;;
8001;SDS011;4046;48.774;8.732;2023-06-04T09:13:32;3.63;;;3.43;;
8001;SDS011;4046;48.774;8.732;2023-06-04T09:16:02;3.70;;;3.50;;
8001;SDS011;4046;48.774;8.732;2023-06-04T09:18:31;3.40;;;3.20;;
8001;SDS011;4046;48.774;8.732;2023-06-04T09:21:01;3.00;;;2.80;;
8001;SDS011;4046;48.774;8.732;2023-06-04T09:23:28;3.17;;;2.97;;
8001;SDS011;4046;48.774;8.732;2023-06-04T09:25:55;3.10;;;2.90;;
8001;SDS011;4046;48.774;8.732;2023-06-04T09:28:21;3.70;;;3.50;;
8001;SDS011;4046;48.774;8.732;2023-06-04T09:30:51;3.30;;;3.10;;
8001;SDS011;4046;48.774;8.732;2023-06-04T09:33:17;3.10;;;2.90;;
8001;SDS011;4046;48.774;8.732;2023-06-04T09:35:52;2.87;;;2.67;;
8001;SDS011;4046;48.774;8.732;2023-06-04T09:38:33;3.27;;;3.03;;
8001;SDS011;4046;48.774;8.732;2023-06-04T09:41:02;3.20;;;3.00;;
8001;SDS011;4046;48.774;8.732;2023-06-04T09:43:31;2.87;;;2.67;;
8001;SDS011;4046;48.774;8.732;2023-06-04T09:46:10;3.73;;;3.50;;
8001;SDS011;4046;48.774;8.732;2023-06-04T09:48:37;2.80;;;2.60;;
8001;SDS011;4046;48.774;8.732;2023-06-04T09:51:10;3.10;;;2.87;;
8001;SDS011;4046;48.774;8.732;2023-06-04T09:53:37;3.10;;;2.90;;
8001;SDS011;4046;48.774;8.732;2023-06-04T09:56:04;3.20;;;2.90;;
8001;SDS011;4046;48.774;8.732;2023-06-04T09:58:37;3.77;;;3.47;;
8001;SDS011;4046;48.774;8.732;2023-06-04T10:01:04;3.10;;;2.90;;
8001;SDS011;4046;48.774;8.732;2023-06-04T10:03:32;3.13;;;2.93;;
8001;SDS011;4046;48.774;8.732;2023-06-04T10:05:59;2.93;;;2.73;;
8001;SDS011;4046;48.774;8.732;2023-06-04T10:08:27;2.90;;;2.60;;
8001;SDS011;4046;48.774;8.732;2023-06-04T10:10:55;2.77;;;2.57;;
8001;SDS011;4046;48.774;8.732;2023-06-04T10:13:26;3.10;;;2.67;;
8001;SDS011;4046;48.774;8.732;2023-06-04T10:15:56;3.20;;;3.00;;
8001;SDS011;4046;48.774;8.732;2023-06-04T10:18:24;3.40;;;3.10;;
8001;SDS011;4046;48.774;8.732;2023-06-04T10:20:55;3.00;;;2.73;;
8001;SDS011;4046;48.774;8.732;2023-06-04T10:23:26;3.53;;;3.23;;
8001;SDS011;4046;48.774;8.732;2023-06-04T10:25:52;3.47;;;3.20;;
8001;SDS011;4046;48.774;8.732;2023-06-04T10:28:19;6.87;;;3.40;;
8001;SDS011;4046;48.774;8.732;2023-06-04T10:30:49;3.13;;;2.93;;
8001;SDS011;4046;48.774;8.732;2023-06-04T10:33:16;4.00;;;3.43;;
8001;SDS011;4046;48.774;8.732;2023-06-04T10:35:49;3.30;;;3.00;;
8001;SDS011;4046;48.774;8.732;2023-06-04T10:38:22;3.43;;;3.13;;
8001;SDS011;4046;48.774;8.732;2023-06-04T10:40:48;5.43;;;2.90;;
8001;SDS011;4046;48.774;8.732;2023-06-04T10:43:14;3.80;;;3.37;;
8001;SDS011;4046;48.774;8.732;2023-06-04T10:45:44;3.80;;;3.50;;
8001;SDS011;4046;48.774;8.732;2023-06-04T10:48:11;3.83;;;3.47;;
8001;SDS011;4046;48.774;8.732;2023-06-04T10:50:48;3.97;;;3.60;;
8001;SDS011;4046;48.774;8.732;2023-06-04T10:53:16;3.57;;;3.23;;
8001;SDS011;4046;48.774;8.732;2023-06-04T10:55:43;3.70;;;3.50;;
8001;SDS011;4046;48.774;8.732;2023-06-04T10:58:10;3.50;;;3.30;;
8001;SDS011;4046;48.774;8.732;2023-06-04T11:00:46;4.40;;;2.87;;
8001;SDS011;4046;48.774;8.732;2023-06-04T11:03:14;3.10;;;2.90;;
8001;SDS011;4046;48.774;8.732;2023-06-04T11:08:07;3.20;;;3.00;;
8001;SDS011;4046;48.774;8.732;2023-06-04T11:10:36;3.37;;;3.07;;
8001;SDS011;4046;48.774;8.732;2023-06-04T11:13:04;3.80;;;3.50;;
8001;SDS011;4046;48.774;8.732;2023-06-04T11:18:16;3.80;;;3.37;;
8001;SDS011;4046;48.774;8.732;2023-06-04T11:20:44;3.10;;;2.90;;
8001;SDS011;4046;48.774;8.732;2023-06-04T11:23:15;2.90;;;2.67;;
8001;SDS011;4046;48.774;8.732;2023-06-04T11:25:42;3.20;;;3.00;;
8001;SDS011;4046;48.774;8.732;2023-06-04T11:28:17;3.30;;;3.00;;
8001;SDS011;4046;48.774;8.732;2023-06-04T11:30:44;3.60;;;3.30;;
8001;SDS011;4046;48.774;8.732;2023-06-04T11:33:22;3.47;;;3.27;;
8001;SDS011;4046;48.774;8.732;2023-06-04T11:35:48;3.10;;;2.90;;
8001;SDS011;4046;48.774;8.732;2023-06-04T11:38:14;3.30;;;3.10;;
8001;SDS011;4046;48.774;8.732;2023-06-04T11:40:40;3.83;;;3.13;;
8001;SDS011;4046;48.774;8.732;2023-06-04T11:43:11;3.57;;;3.27;;
8001;SDS011;4046;48.774;8.732;2023-06-04T11:45:36;3.57;;;3.37;;
8001;SDS011;4046;48.774;8.732;2023-06-04T11:48:04;3.37;;;2.73;;
8001;SDS011;4046;48.774;8.732;2023-06-04T11:50:30;3.00;;;2.80;;
8001;SDS011;4046;48.774;8.732;2023-06-04T11:52:57;3.60;;;3.30;;
8001;SDS011;4046;48.774;8.732;2023-06-04T11:55:25;2.77;;;2.57;;
8001;SDS011;4046;48.774;8.732;2023-06-04T11:57:51;2.83;;;2.63;;
8001;SDS011;4046;48.774;8.732;2023-06-04T12:00:17;3.20;;;3.00;;
8001;SDS011;4046;48.774;8.732;2023-06-04T12:05:20;3.20;;;3.00;;
8001;SDS011;4046;48.774;8.732;2023-06-04T12:08:03;3.60;;;3.40;;
8001;SDS011;4046;48.774;8.732;2023-06-04T12:10:36;3.27;;;3.00;;
8001;SDS011;4046;48.774;8.732;2023-06-04T12:13:06;3.83;;;3.53;;
8001;SDS011;4046;48.774;8.732;2023-06-04T12:15:35;3.47;;;3.27;;
8001;SDS011;4046;48.774;8.732;2023-06-04T12:18:01;3.13;;;2.93;;
8001;SDS011;4046;48.774;8.732;2023-06-04T12:23:06;2.90;;;2.70;;
8001;SDS011;4046;48.774;8.732;2023-06-04T12:25:33;3.00;;;2.80;;
8001;SDS011;4046;48.774;8.732;2023-06-04T12:28:00;3.10;;;2.90;;
8001;SDS011;4046;48.774;8.732;2023-06-04T12:30:38;3.20;;;2.90;;
8001;SDS011;4046;48.774;8.732;2023-06-04T12:33:04;3.50;;;3.30;;
8001;SDS011;4046;48.774;8.732;2023-06-04T12:35:31;4.27;;;3.87;;
8001;SDS011;4046;48.774;8.732;2023-06-04T12:37:56;3.83;;;3.53;;
8001;SDS011;4046;48.774;8.732;2023-06-04T12:40:22;3.20;;;3.00;;
8001;SDS011;4046;48.774;8.732;2023-06-04T12:42:52;3.33;;;3.13;;
8001;SDS011;4046;48.774;8.732;2023-06-04T12:45:17;3.37;;;2.87;;
8001;SDS011;4046;48.774;8.732;2023-06-04T12:47:43;2.80;;;2.60;;
8001;SDS011;4046;48.774;8.732;2023-06-04T12:50:10;3.07;;;2.80;;
8001;SDS011;4046;48.774;8.732;2023-06-04T12:52:36;3.17;;;2.97;;
8001;SDS011;4046;48.774;8.732;2023-06-04T12:55:02;3.20;;;3.00;;
8001;SDS011;4046;48.774;8.732;2023-06-04T12:57:28;3.27;;;3.07;;
8001;SDS011;4046;48.774;8.732;2023-06-04T12:59:55;3.20;;;3.00;;
8001;SDS011;4046;48.774;8.732;2023-06-04T13:02:22;3.00;;;2.80;;
8001;SDS011;4046;48.774;8.732;2023-06-04T13:04:48;3.33;;;3.13;;
8001;SDS011;4046;48.774;8.732;2023-06-04T13:07:18;3.50;;;3.20;;
8001;SDS011;4046;48.774;8.732;2023-06-04T13:09:44;3.50;;;3.30;;
8001;SDS011;4046;48.774;8.732;2023-06-04T13:12:12;3.00;;;2.80;;
8001;SDS011;4046;48.774;8.732;2023-06-04T13:14:38;3.23;;;2.93;;
8001;SDS011;4046;48.774;8.732;2023-06-04T13:17:04;3.63;;;3.37;;
8001;SDS011;4046;48.774;8.732;2023-06-04T13:19:30;3.27;;;3.07;;
8001;SDS011;4046;48.774;8.732;2023-06-04T13:21:56;3.10;;;2.90;;
8001;SDS011;4046;48.774;8.732;2023-06-04T13:24:23;3.30;;;3.10;;
8001;SDS011;4046;48.774;8.732;2023-06-04T13:26:49;3.60;;;3.30;;
8001;SDS011;4046;48.774;8.732;2023-06-04T13:29:15;2.90;;;2.70;;
8001;SDS011;4046;48.774;8.732;2023-06-04T13:31:41;3.00;;;2.80;;
8001;SDS011;4046;48.774;8.732;2023-06-04T13:34:08;2.70;;;2.50;;
8001;SDS011;4046;48.774;8.732;2023-06-04T13:36:34;2.90;;;2.70;;
8001;SDS011;4046;48.774;8.732;2023-06-04T13:39:00;3.23;;;2.93;;
8001;SDS011;4046;48.774;8.732;2023-06-04T13:41:26;3.20;;;3.00;;
8001;SDS011;4046;48.774;8.732;2023-06-04T13:43:52;3.20;;;3.00;;
8001;SDS011;4046;48.774;8.732;2023-06-04T13:46:18;3.60;;;3.40;;
8001;SDS011;4046;48.774;8.732;2023-06-04T13:48:43;3.30;;;3.10;;
8001;SDS011;4046;48.774;8.732;2023-06-04T13:51:09;3.20;;;3.00;;
8001;SDS011;4046;48.774;8.732;2023-06-04T13:53:35;3.20;;;3.00;;
8001;SDS011;4046;48.774;8.732;2023-06-04T13:56:02;3.37;;;3.17;;
8001;SDS011;4046;48.774;8.732;2023-06-04T13:58:28;3.20;;;3.00;;
8001;SDS011;4046;48.774;8.732;2023-06-04T14:00:54;3.07;;;2.87;;
8001;SDS011;4046;48.774;8.732;2023-06-04T14:03:20;3.50;;;2.70;;
8001;SDS011;4046;48.774;8.732;2023-06-04T14:05:46;3.23;;;3.03;;
8001;SDS011;4046;48.774;8.732;2023-06-04T14:08:12;3.20;;;3.00;;
8001;SDS011;4046;48.774;8.732;2023-06-04T14:10:38;3.10;;;2.83;;
8001;SDS011;4046;48.774;8.732;2023-06-04T14:13:06;3.23;;;3.03;;
8001;SDS011;4046;48.774;8.732;2023-06-04T14:15:33;3.20;;;3.00;;
8001;SDS011;4046;48.774;8.732;2023-06-04T14:17:59;3.37;;;3.13;;
8001;SDS011;4046;48.774;8.732;2023-06-04T14:20:28;3.10;;;2.90;;
8001;SDS011;4046;48.774;8.732;2023-06-04T14:22:55;2.93;;;2.73;;
8001;SDS011;4046;48.774;8.732;2023-06-04T14:25:21;3.10;;;2.90;;
8001;SDS011;4046;48.774;8.732;2023-06-04T14:27:47;3.00;;;2.80;;
8001;SDS011;4046;48.774;8.732;2023-06-04T14:30:14;3.27;;;3.07;;
8001;SDS011;4046;48.774;8.732;2023-06-04T14:32:41;3.53;;;3.23;;
8001;SDS011;4046;48.774;8.732;2023-06-04T14:35:07;3.07;;;2.87;;
8001;SDS011;4046;48.774;8.732;2023-06-04T14:37:33;3.00;;;2.80;;
8001;SDS011;4046;48.774;8.732;2023-06-04T14:39:59;3.23;;;2.93;;
8001;SDS011;4046;48.774;8.732;2023-06-04T14:42:25;2.93;;;2.73;;
8001;SDS011;4046;48.774;8.732;2023-06-04T14:44:51;3.63;;;3.33;;
8001;SDS011;4046;48.774;8.732;2023-06-04T14:47:17;3.23;;;3.03;;
8001;SDS011;4046;48.774;8.732;2023-06-04T14:49:43;2.80;;;2.60;;
8001;SDS011;4046;48.774;8.732;2023-06-04T14:52:09;3.70;;;3.40;;
8001;SDS011;4046;48.774;8.732;2023-06-04T14:54:35;3.10;;;2.90;;
8001;SDS011;4046;48.774;8.732;2023-06-04T14:57:01;3.03;;;2.83;;
8001;SDS011;4046;48.774;8.732;2023-06-04T14:59:27;3.13;;;2.93;;
8001;SDS011;4046;48.774;8.732;2023-06-04T15:01:55;3.23;;;3.00;;
8001;SDS011;4046;48.774;8.732;2023-06-04T15:04:23;3.27;;;3.07;;
8001;SDS011;4046;48.774;8.732;2023-06-04T15:06:49;3.30;;;3.10;;
8001;SDS011;4046;48.774;8.732;2023-06-04T15:09:15;3.20;;;3.00;;
8001;SDS011;4046;48.774;8.732;2023-06-04T15:11:41;3.33;;;3.13;;
8001;SDS011;4046;48.774;8.732;2023-06-04T15:14:07;3.23;;;3.03;;
8001;SDS011;4046;48.774;8.732;2023-06-04T15:16:33;2.77;;;2.60;;
8001;SDS011;4046;48.774;8.732;2023-06-04T15:18:59;3.30;;;3.07;;
8001;SDS011;4046;48.774;8.732;2023-06-04T15:21:25;3.23;;;3.03;;
8001;SDS011;4046;48.774;8.732;2023-06-04T15:23:51;3.23;;;3.03;;
8001;SDS011;4046;48.774;8.732;2023-06-04T15:26:19;2.93;;;2.73;;
8001;SDS011;4046;48.774;8.732;2023-06-04T15:28:45;3.23;;;3.03;;
8001;SDS011;4046;48.774;8.732;2023-06-04T15:31:13;3.37;;;3.17;;
8001;SDS011;4046;48.774;8.732;2023-06-04T15:33:39;3.53;;;3.30;;
8001;SDS011;4046;48.774;8.732;2023-06-04T15:36:05;3.40;;;3.00;;
8001;SDS011;4046;48.774;8.732;2023-06-04T15:38:31;3.40;;;3.20;;